createdAt,value
2023-01-29T00:01:56.758Z,78.45
2023-01-29T00:04:23.899Z,78.01
2023-01-29T00:06:50.329Z,78.03
2023-01-29T00:09:16.824Z,78.99
2023-01-29T00:11:43.378Z,78.50
2023-01-29T00:14:09.863Z,78.49
2023-01-29T00:16:36.447Z,78.79
2023-01-29T00:19:03.303Z,78.60
2023-01-29T00:21:33.403Z,78.83
2023-01-29T00:24:00.402Z,78.31
2023-01-29T00:26:27.961Z,78.50
2023-01-29T00:28:56.978Z,78.44
2023-01-29T00:31:24.982Z,78.40
2023-01-29T00:33:52.139Z,78.87
2023-01-29T00:36:23.321Z,78.94
2023-01-29T00:38:58.485Z,78.90
2023-01-29T00:41:50.540Z,78.92
2023-01-29T00:44:36.914Z,79.17
2023-01-29T00:47:03.963Z,79.43
2023-01-29T00:49:30.586Z,79.35
2023-01-29T00:52:15.481Z,79.25
2023-01-29T00:54:41.835Z,78.73
2023-01-29T00:57:08.195Z,79.10
2023-01-29T00:59:34.584Z,79.37
2023-01-29T01:02:19.895Z,79.63
2023-01-29T01:04:46.324Z,79.06
2023-01-29T01:09:56.352Z,78.47
2023-01-29T01:12:22.952Z,78.56
2023-01-29T01:14:49.441Z,78.64
2023-01-29T01:17:15.989Z,78.41
2023-01-29T01:19:42.561Z,78.59
2023-01-29T01:22:08.994Z,78.59
2023-01-29T01:24:35.891Z,78.33
2023-01-29T01:27:02.306Z,78.65
2023-01-29T01:29:28.825Z,78.76
2023-01-29T01:31:55.254Z,78.75
2023-01-29T01:34:22.196Z,78.85
2023-01-29T01:36:49.184Z,78.76
2023-01-29T01:39:15.775Z,79.27
2023-01-29T01:41:42.482Z,79.18
2023-01-29T01:44:47.346Z,79.09
2023-01-29T01:47:15.495Z,79.23
2023-01-29T01:49:43.320Z,79.15
2023-01-29T01:52:10.350Z,78.70
2023-01-29T01:54:36.814Z,78.53
2023-01-29T01:57:15.782Z,79.05
2023-01-29T01:59:55.079Z,78.39
2023-01-29T02:02:40.259Z,78.40
2023-01-29T02:05:26.180Z,78.64
2023-01-29T02:08:11.253Z,78.69
2023-01-29T02:10:44.463Z,78.95
2023-01-29T02:13:11.064Z,78.79
2023-01-29T02:15:41.752Z,79.20
2023-01-29T02:18:09.143Z,79.23
2023-01-29T02:20:36.781Z,79.25
2023-01-29T02:23:27.052Z,78.81
2023-01-29T02:26:09.624Z,79.45
2023-01-29T02:28:50.073Z,79.00
2023-01-29T02:31:55.957Z,79.50
2023-01-29T02:34:52.628Z,79.34
2023-01-29T02:37:25.946Z,78.97
2023-01-29T02:40:03.978Z,79.49
2023-01-29T02:42:48.914Z,79.87
2023-01-29T02:45:24.844Z,79.76
2023-01-29T02:47:52.098Z,78.86
2023-01-29T02:50:18.799Z,78.88
2023-01-29T02:53:13.088Z,78.84
2023-01-29T02:55:39.461Z,79.27
2023-01-29T02:58:25.694Z,79.39
2023-01-29T03:00:56.106Z,79.62
2023-01-29T03:03:34.487Z,79.26
2023-01-29T03:06:12.053Z,79.10
2023-01-29T03:08:45.534Z,79.79
2023-01-29T03:11:14.796Z,79.14
2023-01-29T03:13:43.098Z,79.65
2023-01-29T03:16:22.417Z,79.63
2023-01-29T03:18:57.072Z,79.92
2023-01-29T03:21:59.532Z,79.86
2023-01-29T03:24:59.701Z,79.82
2023-01-29T03:27:50.450Z,79.79
2023-01-29T03:30:37.732Z,79.55
2023-01-29T03:33:07.946Z,80.22
2023-01-29T03:35:39.534Z,80.11
2023-01-29T03:38:11.693Z,80.33
2023-01-29T03:40:50.906Z,80.78
2023-01-29T03:43:20.264Z,80.34
2023-01-29T03:46:10.655Z,80.98
2023-01-29T03:48:45.857Z,81.02
2023-01-29T03:51:18.711Z,80.82
2023-01-29T03:53:51.886Z,80.98
2023-01-29T03:56:34.520Z,81.00
2023-01-29T03:59:12.369Z,80.99
2023-01-29T04:01:48.589Z,80.57
2023-01-29T04:04:22.600Z,80.83
2023-01-29T04:06:53.041Z,81.14
2023-01-29T04:09:24.955Z,81.21
2023-01-29T04:12:05.527Z,81.23
2023-01-29T04:14:32.704Z,80.30
2023-01-29T04:17:03.344Z,80.50
2023-01-29T04:19:30.237Z,80.46
2023-01-29T04:22:10.613Z,80.44
2023-01-29T04:24:37.570Z,80.70
2023-01-29T04:27:14.626Z,80.52
2023-01-29T04:30:00.941Z,80.09
2023-01-29T04:32:55.258Z,80.60
2023-01-29T04:35:26.844Z,80.27
2023-01-29T04:38:18.113Z,80.16
2023-01-29T04:41:11.447Z,81.15
2023-01-29T04:43:50.034Z,80.96
2023-01-29T04:46:42.054Z,81.04
2023-01-29T04:49:17.539Z,81.21
2023-01-29T04:52:26.825Z,80.47
2023-01-29T04:55:15.130Z,81.01
2023-01-29T04:58:07.917Z,80.34
2023-01-29T05:00:42.255Z,80.71
2023-01-29T05:03:11.558Z,80.96
2023-01-29T05:05:42.321Z,80.71
2023-01-29T05:08:13.316Z,80.83
2023-01-29T05:10:40.022Z,80.46
2023-01-29T05:13:11.869Z,80.34
2023-01-29T05:15:49.849Z,80.80
2023-01-29T05:18:16.548Z,80.61
2023-01-29T05:20:44.323Z,80.82
2023-01-29T05:23:20.183Z,81.05
2023-01-29T05:25:48.715Z,80.79
2023-01-29T05:28:18.335Z,81.13
2023-01-29T05:30:47.181Z,80.85
2023-01-29T05:33:16.504Z,80.47
2023-01-29T05:35:43.112Z,81.11
2023-01-29T05:38:10.181Z,80.32
2023-01-29T05:40:37.492Z,80.68
2023-01-29T05:43:05.768Z,80.90
2023-01-29T05:45:32.802Z,81.22
2023-01-29T05:48:00.169Z,81.37
2023-01-29T05:50:27.388Z,81.47
2023-01-29T05:53:01.061Z,81.49
2023-01-29T05:55:29.600Z,81.40
2023-01-29T05:57:56.061Z,81.47
2023-01-29T06:00:22.593Z,81.81
2023-01-29T06:02:49.607Z,81.30
2023-01-29T06:05:16.051Z,81.58
2023-01-29T06:07:45.236Z,81.59
2023-01-29T06:10:16.935Z,80.67
2023-01-29T06:12:44.073Z,80.69
2023-01-29T06:15:12.271Z,80.80
2023-01-29T06:17:38.846Z,81.20
2023-01-29T06:20:06.066Z,81.60
2023-01-29T06:22:33.074Z,81.49
2023-01-29T06:24:59.804Z,80.76
2023-01-29T06:27:26.252Z,81.52
2023-01-29T06:29:52.665Z,82.28
2023-01-29T06:32:19.142Z,81.74
2023-01-29T06:34:47.307Z,81.45
2023-01-29T06:37:15.064Z,81.92
2023-01-29T06:39:41.531Z,81.32
2023-01-29T06:42:08.515Z,81.79
2023-01-29T06:44:34.961Z,82.17
2023-01-29T06:47:01.378Z,81.67
2023-01-29T06:49:27.795Z,81.17
2023-01-29T06:51:54.339Z,81.53
2023-01-29T06:54:20.801Z,81.66
2023-01-29T06:56:47.188Z,81.46
2023-01-29T06:59:13.738Z,81.81
2023-01-29T07:01:42.263Z,81.76
2023-01-29T07:04:09.011Z,81.74
2023-01-29T07:06:35.806Z,81.39
2023-01-29T07:09:03.857Z,82.14
2023-01-29T07:11:34.256Z,81.89
2023-01-29T07:14:00.696Z,81.83
2023-01-29T07:16:27.417Z,82.26
2023-01-29T07:18:53.839Z,81.88
2023-01-29T07:21:20.338Z,81.46
2023-01-29T07:23:46.715Z,80.73
2023-01-29T07:26:13.238Z,81.46
2023-01-29T07:28:40.442Z,81.99
2023-01-29T07:31:07.762Z,81.70
2023-01-29T07:33:34.838Z,82.00
2023-01-29T07:36:01.291Z,81.91
2023-01-29T07:38:27.699Z,81.90
2023-01-29T07:40:54.859Z,81.23
2023-01-29T07:43:21.387Z,81.71
2023-01-29T07:45:47.875Z,81.25
2023-01-29T07:48:14.350Z,81.43
2023-01-29T07:50:41.160Z,81.11
2023-01-29T07:53:07.837Z,81.83
2023-01-29T07:55:34.231Z,81.44
2023-01-29T07:58:02.963Z,81.75
2023-01-29T08:00:31.589Z,81.67
2023-01-29T08:03:15.124Z,81.86
2023-01-29T08:05:42.009Z,82.18
2023-01-29T08:08:08.662Z,82.16
2023-01-29T08:10:38.892Z,81.93
2023-01-29T08:13:06.407Z,82.08
2023-01-29T08:15:33.786Z,82.51
2023-01-29T08:18:04.067Z,81.97
2023-01-29T08:20:30.676Z,81.74
2023-01-29T08:23:12.647Z,81.44
2023-01-29T08:25:40.625Z,82.29
2023-01-29T08:28:07.238Z,81.48
2023-01-29T08:30:34.655Z,81.70
2023-01-29T08:33:03.108Z,81.63
2023-01-29T08:35:34.527Z,81.58
2023-01-29T08:38:03.405Z,81.76
2023-01-29T08:40:32.258Z,81.71
2023-01-29T08:43:09.163Z,81.63
2023-01-29T08:45:39.805Z,81.75
2023-01-29T08:48:07.100Z,81.44
2023-01-29T08:50:35.867Z,81.41
2023-01-29T08:53:07.630Z,81.19
2023-01-29T08:55:37.318Z,82.03
2023-01-29T08:58:11.432Z,81.63
2023-01-29T09:00:38.613Z,81.52
2023-01-29T09:03:05.043Z,81.57
2023-01-29T09:05:31.456Z,81.50
2023-01-29T09:07:58.137Z,81.49
2023-01-29T09:10:24.998Z,82.15
2023-01-29T09:12:51.499Z,82.30
2023-01-29T09:15:18.488Z,81.78
2023-01-29T09:17:45.204Z,81.68
2023-01-29T09:20:11.837Z,81.59
2023-01-29T09:22:38.412Z,82.19
2023-01-29T09:25:05.251Z,81.75
2023-01-29T09:27:31.727Z,81.63
2023-01-29T09:29:58.210Z,82.28
2023-01-29T09:32:51.972Z,81.80
2023-01-29T09:35:14.830Z,81.34
2023-01-29T09:37:41.567Z,80.87
2023-01-29T09:40:20.977Z,81.62
2023-01-29T09:42:55.253Z,80.64
2023-01-29T09:45:24.778Z,80.11
2023-01-29T09:47:54.819Z,79.65
2023-01-29T09:50:29.072Z,79.44
2023-01-29T09:53:04.992Z,80.27
2023-01-29T09:55:37.352Z,79.44
2023-01-29T09:58:35.780Z,79.64
2023-01-29T10:01:10.894Z,79.22
2023-01-29T10:03:52.597Z,79.09
2023-01-29T10:06:25.039Z,78.05
2023-01-29T10:09:00.737Z,78.58
2023-01-29T10:11:37.714Z,78.51
2023-01-29T10:14:07.089Z,78.76
2023-01-29T10:16:45.377Z,78.60
2023-01-29T10:19:33.445Z,78.89
2023-01-29T10:22:05.797Z,78.66
2023-01-29T10:24:38.783Z,78.78
2023-01-29T10:27:18.860Z,78.62
2023-01-29T10:29:48.717Z,77.86
2023-01-29T10:32:21.792Z,77.94
2023-01-29T10:35:22.642Z,76.80
2023-01-29T10:37:54.704Z,76.85
2023-01-29T10:40:54.099Z,76.66
2023-01-29T10:43:38.863Z,76.52
2023-01-29T10:46:31.968Z,75.99
2023-01-29T10:49:21.923Z,76.05
2023-01-29T10:52:26.199Z,75.51
2023-01-29T10:55:19.930Z,75.89
2023-01-29T10:57:49.032Z,75.45
2023-01-29T11:00:33.261Z,75.71
2023-01-29T11:03:26.446Z,75.85
2023-01-29T11:06:03.081Z,75.46
2023-01-29T11:08:43.066Z,76.46
2023-01-29T11:11:22.034Z,76.13
2023-01-29T11:14:08.884Z,75.27
2023-01-29T11:16:45.571Z,76.06
2023-01-29T11:19:14.783Z,75.46
2023-01-29T11:21:58.460Z,75.42
2023-01-29T11:24:26.044Z,74.66
2023-01-29T11:26:57.574Z,74.90
2023-01-29T11:29:29.999Z,75.30
2023-01-29T11:32:03.450Z,75.41
2023-01-29T11:34:33.381Z,75.21
2023-01-29T11:37:05.125Z,75.47
2023-01-29T11:39:35.340Z,74.68
2023-01-29T11:42:04.025Z,74.32
2023-01-29T11:44:33.211Z,74.09
2023-01-29T11:47:12.896Z,74.61
2023-01-29T11:49:45.559Z,74.08
2023-01-29T11:52:16.429Z,73.95
2023-01-29T11:55:21.739Z,73.86
2023-01-29T11:58:06.825Z,74.50
2023-01-29T12:00:35.858Z,74.18
2023-01-29T12:03:13.540Z,74.35
2023-01-29T12:05:41.240Z,73.93
2023-01-29T12:08:18.087Z,74.14
2023-01-29T12:10:44.887Z,74.15
2023-01-29T12:13:12.124Z,73.96
2023-01-29T12:15:40.026Z,73.87
2023-01-29T12:18:27.666Z,73.36
2023-01-29T12:20:59.218Z,73.82
2023-01-29T12:23:34.605Z,73.66
2023-01-29T12:26:21.244Z,73.92
2023-01-29T12:28:48.171Z,73.96
2023-01-29T12:31:33.347Z,73.25
2023-01-29T12:34:27.341Z,73.65
2023-01-29T12:37:03.014Z,73.62
2023-01-29T12:39:29.838Z,73.17
2023-01-29T12:42:04.636Z,73.69
2023-01-29T12:44:42.108Z,74.19
2023-01-29T12:47:19.200Z,73.86
2023-01-29T12:49:51.533Z,74.04
2023-01-29T12:52:41.798Z,74.75
2023-01-29T12:55:22.204Z,74.43
2023-01-29T12:58:10.341Z,74.08
2023-01-29T13:00:46.660Z,74.88
2023-01-29T13:03:44.474Z,74.06
2023-01-29T13:06:54.510Z,73.87
2023-01-29T13:09:29.748Z,74.63
2023-01-29T13:12:01.685Z,74.96
2023-01-29T13:14:43.431Z,74.60
2023-01-29T13:17:36.131Z,74.08
2023-01-29T13:20:25.610Z,74.84
2023-01-29T13:22:56.423Z,74.75
2023-01-29T13:25:23.789Z,75.42
2023-01-29T13:27:51.166Z,75.66
2023-01-29T13:30:37.541Z,75.13
2023-01-29T13:33:09.416Z,75.72
2023-01-29T13:35:42.974Z,75.25
2023-01-29T13:38:29.564Z,75.20
2023-01-29T13:41:03.023Z,75.50
2023-01-29T13:43:38.538Z,75.69
2023-01-29T13:46:14.007Z,75.94
2023-01-29T13:48:47.103Z,75.60
2023-01-29T13:51:20.040Z,75.97
2023-01-29T13:54:02.326Z,75.89
2023-01-29T13:56:34.906Z,76.35
2023-01-29T13:59:03.286Z,75.66
2023-01-29T14:01:48.103Z,76.24
2023-01-29T14:04:28.189Z,76.66
2023-01-29T14:06:56.602Z,76.39
2023-01-29T14:09:38.008Z,77.28
2023-01-29T14:12:25.295Z,76.57
2023-01-29T14:14:54.363Z,76.23
2023-01-29T14:17:21.297Z,76.59
2023-01-29T14:20:17.387Z,76.98
2023-01-29T14:22:43.881Z,77.04
2023-01-29T14:25:18.665Z,76.80
2023-01-29T14:27:49.272Z,77.27
2023-01-29T14:30:19.364Z,77.64
2023-01-29T14:32:51.551Z,77.15
2023-01-29T14:35:24.878Z,77.79
2023-01-29T14:37:54.845Z,78.53
2023-01-29T14:40:25.771Z,78.01
2023-01-29T14:43:06.255Z,77.99
2023-01-29T14:45:34.271Z,78.13
2023-01-29T14:48:03.920Z,78.46
2023-01-29T14:50:34.137Z,78.60
2023-01-29T14:53:11.880Z,79.49
2023-01-29T14:55:50.427Z,78.62
2023-01-29T14:58:24.255Z,78.84
2023-01-29T15:00:55.057Z,79.65
2023-01-29T15:03:49.932Z,79.45
2023-01-29T15:06:23.883Z,79.32
2023-01-29T15:09:13.423Z,80.06
2023-01-29T15:11:51.728Z,80.20
2023-01-29T15:14:34.214Z,80.11
2023-01-29T15:17:23.485Z,80.55
2023-01-29T15:19:49.979Z,80.49
2023-01-29T15:22:19.392Z,80.20
2023-01-29T15:24:50.627Z,80.89
2023-01-29T15:27:20.322Z,80.60
2023-01-29T15:29:59.026Z,80.65
2023-01-29T15:32:36.052Z,80.95
2023-01-29T15:35:16.087Z,81.35
2023-01-29T15:37:42.638Z,80.82
2023-01-29T15:40:17.265Z,81.09
2023-01-29T15:42:48.367Z,80.76
2023-01-29T15:45:34.177Z,81.10
2023-01-29T15:48:08.878Z,80.83
2023-01-29T15:50:39.321Z,81.32
2023-01-29T15:53:09.924Z,81.41
2023-01-29T15:55:39.179Z,81.67
2023-01-29T15:58:07.506Z,81.19
2023-01-29T16:00:35.965Z,81.38
2023-01-29T16:03:16.031Z,82.08
2023-01-29T16:05:46.294Z,81.72
2023-01-29T16:08:15.233Z,81.69
2023-01-29T16:10:44.493Z,81.84
2023-01-29T16:13:25.120Z,81.78
2023-01-29T16:16:04.189Z,82.39
2023-01-29T16:18:36.496Z,82.22
2023-01-29T16:21:09.068Z,82.87
2023-01-29T16:23:42.646Z,82.70
2023-01-29T16:26:16.457Z,82.71
2023-01-29T16:28:44.749Z,82.83
2023-01-29T16:31:14.012Z,83.23
2023-01-29T16:33:43.230Z,83.15
2023-01-29T16:36:22.244Z,83.30
2023-01-29T16:39:05.680Z,83.80
2023-01-29T16:41:35.923Z,84.35
2023-01-29T16:44:24.259Z,84.23
2023-01-29T16:46:52.253Z,84.53
2023-01-29T16:49:30.944Z,84.97
2023-01-29T16:52:19.472Z,86.12
2023-01-29T16:54:45.951Z,85.66
2023-01-29T16:57:17.754Z,86.05
2023-01-29T16:59:44.565Z,86.63
2023-01-29T17:02:35.076Z,87.04
2023-01-29T17:05:08.063Z,86.54
2023-01-29T17:07:36.643Z,86.98
2023-01-29T17:10:06.465Z,87.56
2023-01-29T17:12:34.029Z,88.18
2023-01-29T17:15:25.133Z,88.73
2023-01-29T17:17:51.678Z,88.15
2023-01-29T17:20:18.208Z,89.09
2023-01-29T17:22:45.078Z,89.21
2023-01-29T17:25:15.868Z,89.68
2023-01-29T17:27:48.278Z,90.13
2023-01-29T17:30:16.523Z,90.18
2023-01-29T17:32:44.974Z,90.01
2023-01-29T17:35:14.307Z,89.43
2023-01-29T17:37:41.033Z,89.92
2023-01-29T17:40:37.388Z,90.08
2023-01-29T17:43:03.818Z,89.19
2023-01-29T17:45:30.351Z,88.55
2023-01-29T17:47:56.941Z,88.07
2023-01-29T17:50:27.009Z,87.71
2023-01-29T17:52:53.923Z,86.81
2023-01-29T17:55:20.886Z,87.06
2023-01-29T17:57:47.446Z,87.24
2023-01-29T18:00:23.802Z,86.54
2023-01-29T18:02:50.251Z,85.69
2023-01-29T18:05:17.988Z,86.00
2023-01-29T18:07:46.959Z,85.63
2023-01-29T18:10:18.678Z,86.12
2023-01-29T18:12:45.521Z,86.05
2023-01-29T18:15:12.403Z,86.19
2023-01-29T18:17:39.598Z,86.26
2023-01-29T18:20:20.881Z,85.94
2023-01-29T18:22:47.457Z,86.01
2023-01-29T18:25:14.205Z,85.54
2023-01-29T18:27:40.808Z,86.72
2023-01-29T18:30:08.479Z,86.19
2023-01-29T18:32:34.969Z,85.89
2023-01-29T18:35:01.482Z,85.93
2023-01-29T18:37:29.312Z,86.52
2023-01-29T18:39:55.795Z,86.42
2023-01-29T18:42:22.181Z,86.83
2023-01-29T18:44:49.002Z,88.07
2023-01-29T18:47:15.947Z,88.87
2023-01-29T18:49:42.377Z,89.42
2023-01-29T18:52:10.660Z,90.58
2023-01-29T18:54:40.328Z,90.33
2023-01-29T18:57:14.316Z,90.39
2023-01-29T18:59:54.451Z,90.34
2023-01-29T19:02:21.405Z,90.17
2023-01-29T19:04:48.045Z,90.09
2023-01-29T19:07:29.673Z,89.68
2023-01-29T19:10:06.001Z,90.22
2023-01-29T19:12:36.619Z,90.13
2023-01-29T19:15:03.690Z,90.35
2023-01-29T19:17:34.034Z,90.34
2023-01-29T19:20:04.874Z,90.22
2023-01-29T19:22:32.463Z,90.01
2023-01-29T19:25:03.584Z,89.04
2023-01-29T19:27:30.570Z,89.07
2023-01-29T19:30:00.054Z,89.16
2023-01-29T19:32:28.857Z,88.77
2023-01-29T19:34:55.468Z,88.55
2023-01-29T19:37:22.392Z,88.61
2023-01-29T19:39:48.956Z,88.62
2023-01-29T19:42:20.363Z,88.56
2023-01-29T19:44:51.113Z,88.18
2023-01-29T19:47:17.792Z,88.51
2023-01-29T19:49:46.271Z,88.97
2023-01-29T19:52:49.767Z,88.39
2023-01-29T19:55:21.259Z,88.49
2023-01-29T19:58:29.820Z,88.81
2023-01-29T20:00:58.003Z,88.88
2023-01-29T20:03:28.240Z,88.88
2023-01-29T20:05:56.470Z,88.44
2023-01-29T20:08:30.324Z,88.32
2023-01-29T20:10:57.591Z,88.27
2023-01-29T20:13:27.702Z,88.76
2023-01-29T20:15:55.726Z,88.69
2023-01-29T20:18:22.400Z,88.20
2023-01-29T20:20:52.952Z,87.70
2023-01-29T20:23:36.661Z,87.31
2023-01-29T20:26:07.401Z,86.46
2023-01-29T20:28:34.623Z,87.43
2023-01-29T20:31:01.258Z,86.66
2023-01-29T20:33:28.221Z,86.37
2023-01-29T20:36:04.620Z,86.50
2023-01-29T20:38:34.135Z,86.42
2023-01-29T20:41:30.447Z,86.22
2023-01-29T20:44:09.996Z,86.42
2023-01-29T20:47:30.094Z,86.28
2023-01-29T20:50:01.005Z,85.49
2023-01-29T20:52:44.573Z,85.86
2023-01-29T20:55:14.347Z,86.01
2023-01-29T20:58:17.285Z,85.79
2023-01-29T21:00:50.047Z,85.74
2023-01-29T21:04:12.812Z,85.23
2023-01-29T21:06:47.298Z,85.98
2023-01-29T21:09:14.025Z,85.34
2023-01-29T21:11:40.894Z,84.91
2023-01-29T21:14:35.745Z,85.22
2023-01-29T21:17:35.734Z,85.41
2023-01-29T21:20:04.609Z,85.21
2023-01-29T21:25:27.703Z,85.40
2023-01-29T21:28:04.564Z,85.39
2023-01-29T21:30:35.052Z,85.57
2023-01-29T21:33:03.811Z,85.88
2023-01-29T21:35:30.692Z,85.95
2023-01-29T21:37:57.141Z,85.89
2023-01-29T21:40:25.223Z,85.93
2023-01-29T21:43:14.114Z,85.87
2023-01-29T21:45:47.297Z,85.72
2023-01-29T21:48:18.082Z,85.96
2023-01-29T21:50:50.933Z,85.43
2023-01-29T21:53:19.266Z,85.44
2023-01-29T21:55:50.761Z,85.21
2023-01-29T21:58:17.245Z,85.63
2023-01-29T22:00:51.506Z,86.07
2023-01-29T22:03:23.632Z,86.20
2023-01-29T22:05:50.643Z,85.93
2023-01-29T22:08:20.641Z,86.24
2023-01-29T22:10:50.430Z,86.76
2023-01-29T22:13:24.440Z,87.07
2023-01-29T22:15:58.059Z,87.20
2023-01-29T22:18:24.614Z,87.65
2023-01-29T22:20:55.666Z,87.74
2023-01-29T22:23:23.239Z,87.10
2023-01-29T22:25:50.210Z,87.21
2023-01-29T22:28:20.996Z,87.76
2023-01-29T22:30:47.705Z,88.02
2023-01-29T22:33:19.911Z,87.92
2023-01-29T22:35:49.500Z,87.66
2023-01-29T22:38:16.064Z,88.40
2023-01-29T22:40:55.016Z,88.68
2023-01-29T22:43:40.975Z,88.72
2023-01-29T22:46:22.999Z,88.73
2023-01-29T22:48:51.944Z,88.58
2023-01-29T22:51:19.145Z,88.80
2023-01-29T22:53:59.760Z,89.75
2023-01-29T22:56:28.347Z,89.77
2023-01-29T22:58:57.173Z,89.30
2023-01-29T23:01:26.736Z,89.22
2023-01-29T23:03:53.883Z,89.26
2023-01-29T23:06:24.105Z,89.66
2023-01-29T23:08:53.024Z,89.63
2023-01-29T23:11:23.581Z,89.97
2023-01-29T23:13:54.991Z,89.34
2023-01-29T23:16:24.901Z,89.23
2023-01-29T23:18:54.131Z,89.53
2023-01-29T23:21:24.797Z,89.12
2023-01-29T23:24:01.144Z,89.70
2023-01-29T23:26:47.552Z,89.77
2023-01-29T23:29:14.502Z,89.57
2023-01-29T23:31:41.257Z,89.34
2023-01-29T23:34:10.610Z,89.60
2023-01-29T23:36:37.244Z,89.60
2023-01-29T23:39:07.943Z,89.76
2023-01-29T23:41:34.921Z,89.74
2023-01-29T23:44:01.575Z,89.91
2023-01-29T23:46:28.241Z,90.53
2023-01-29T23:48:54.779Z,89.87
2023-01-29T23:51:21.473Z,89.39
2023-01-29T23:53:58.230Z,90.10
2023-01-29T23:56:26.630Z,89.64
2023-01-29T23:59:08.809Z,90.34
